Terminal Aerodrome Forecast
Issued by NWS

Home | Current Version | Previous Version | Text Only | Print | Product List | Glossary On
Versions: 1 2 3 4 5 6 7 8 9 10 11 12 13 14 15 16 17 18 19 20 21 22 23 24 25
000
FTUS41 KGYX 310500
TAFAUG
TAF
KAUG 310528Z 3106/0106 VRB03KT 1/4SM FG VV002
     FM311200 VRB03KT 2SM BR BKN005
     FM311300 17004KT P6SM SCT250
     FM311800 16007KT P6SM BKN100 PROB30 3118/3123 2SM TSRA BR
      BKN025CB
     FM312300 20004KT P6SM SCT050 BKN250
     FM010400 VRB03KT 3SM BR FEW002 SCT250=

USA.gov is the U.S. government's official web portal to all federal, state and local government web resources and services.